Aviation Digital Data Service (ADDS)

Output produced by METARs form (1524 UTC 23 January 2019)
found at http://www.aviationweather.gov/metar/data/
 
Forecast for: LIBD (BARI/PALESE MACC, IT)
Text: TAF LIBD 231100Z 2312/2412 22008KT 6000 SCT030
Forecast period: 1200 UTC 23 January 2019 to 1200 UTC 24 January 2019
Forecast type: FROM: standard forecast or significant change
Winds: from the SW (220 degrees) at 9 MPH (8 knots; 4.1 m/s)
Visibility: 4 miles (6 km)
Ceiling: at least 12,000 feet AGL
Clouds: scattered clouds at 3000 feet AGL
Weather: no significant weather forecast for this period